createdAt,value
2022-09-30T00:01:48.152Z,19.77
2022-09-30T00:04:22.702Z,19.71
2022-09-30T00:06:52.560Z,19.67
2022-09-30T00:09:21.851Z,19.63
2022-09-30T00:11:49.641Z,19.60
2022-09-30T00:14:21.721Z,19.64
2022-09-30T00:16:49.908Z,19.68
2022-09-30T00:19:17.709Z,19.74
2022-09-30T00:21:45.619Z,19.78
2022-09-30T00:24:13.730Z,19.84
2022-09-30T00:26:41.510Z,19.89
2022-09-30T00:29:11.122Z,19.95
2022-09-30T00:31:39.320Z,20.00
2022-09-30T00:34:07.587Z,20.03
2022-09-30T00:36:40.305Z,20.06
2022-09-30T00:39:11.793Z,20.07
2022-09-30T00:41:39.688Z,20.06
2022-09-30T00:45:03.434Z,20.07
2022-09-30T00:47:42.102Z,20.06
2022-09-30T00:50:16.902Z,20.04
2022-09-30T00:53:31.241Z,20.02
2022-09-30T00:56:22.378Z,19.86
2022-09-30T00:59:16.547Z,19.50
2022-09-30T01:01:44.567Z,19.37
2022-09-30T01:04:22.159Z,19.30
2022-09-30T01:07:09.145Z,19.27
2022-09-30T01:09:40.637Z,19.29
2022-09-30T01:12:18.773Z,19.34
2022-09-30T01:14:53.210Z,19.35
2022-09-30T01:17:59.963Z,19.38
2022-09-30T01:21:18.857Z,19.35
2022-09-30T01:23:58.072Z,19.31
2022-09-30T01:27:05.561Z,19.27
2022-09-30T01:30:15.012Z,19.21
2022-09-30T01:33:09.575Z,19.16
2022-09-30T01:36:01.450Z,19.14
2022-09-30T01:38:43.751Z,19.11
2022-09-30T01:41:35.217Z,19.09
2022-09-30T01:44:25.209Z,19.06
2022-09-30T01:47:39.641Z,19.06
2022-09-30T01:50:21.982Z,19.06
2022-09-30T01:53:08.823Z,19.06
2022-09-30T01:55:45.005Z,19.06
2022-09-30T01:58:20.332Z,19.08
2022-09-30T02:00:53.297Z,19.09
2022-09-30T02:03:36.791Z,19.09
2022-09-30T02:06:20.620Z,19.08
2022-09-30T02:09:03.832Z,19.06
2022-09-30T02:11:38.480Z,19.08
2022-09-30T02:14:34.377Z,19.04
2022-09-30T02:17:29.047Z,19.01
2022-09-30T02:20:12.609Z,19.01
2022-09-30T02:22:52.329Z,19.04
2022-09-30T02:25:35.868Z,19.08
2022-09-30T02:28:08.441Z,19.11
2022-09-30T02:30:41.124Z,19.17
2022-09-30T02:33:17.597Z,19.24
2022-09-30T02:35:57.772Z,19.29
2022-09-30T02:38:37.189Z,19.34
2022-09-30T02:41:22.072Z,19.37
2022-09-30T02:43:52.404Z,19.42
2022-09-30T02:46:35.510Z,19.47
2022-09-30T02:49:22.444Z,19.52
2022-09-30T02:52:36.194Z,19.55
2022-09-30T02:55:38.594Z,19.58
2022-09-30T02:58:19.882Z,19.60
2022-09-30T03:00:49.093Z,19.63
2022-09-30T03:03:22.918Z,19.64
2022-09-30T03:05:51.944Z,19.62
2022-09-30T03:08:19.706Z,19.61
2022-09-30T03:10:51.057Z,19.58
2022-09-30T03:13:29.053Z,19.55
2022-09-30T03:16:22.950Z,19.53
2022-09-30T03:19:09.451Z,19.52
2022-09-30T03:22:10.966Z,19.49
2022-09-30T03:25:18.586Z,19.42
2022-09-30T03:28:00.196Z,19.36
2022-09-30T03:30:30.532Z,19.31
2022-09-30T03:33:24.581Z,19.30
2022-09-30T03:36:14.441Z,19.31
2022-09-30T03:39:06.040Z,19.33
2022-09-30T03:42:10.563Z,19.32
2022-09-30T03:44:59.910Z,19.30
2022-09-30T03:47:31.533Z,19.30
2022-09-30T03:50:07.013Z,19.31
2022-09-30T03:52:36.830Z,19.32
2022-09-30T03:55:08.659Z,19.36
2022-09-30T03:57:36.391Z,19.37
2022-09-30T04:00:06.235Z,19.38
2022-09-30T05:02:31.813Z,19.23
2022-09-30T05:05:00.681Z,19.21
2022-09-30T05:07:28.163Z,19.21
2022-09-30T05:09:55.638Z,19.21
2022-09-30T05:12:23.861Z,19.18
2022-09-30T05:14:51.304Z,19.15
2022-09-30T05:17:18.925Z,19.14
2022-09-30T05:19:46.618Z,19.11
2022-09-30T05:22:15.104Z,19.09
2022-09-30T05:24:42.548Z,19.08
2022-09-30T05:27:10.370Z,19.05
2022-09-30T05:29:37.853Z,19.06
2022-09-30T05:32:06.096Z,19.08
2022-09-30T05:34:34.045Z,19.10
2022-09-30T05:37:01.624Z,19.11
2022-09-30T05:39:29.069Z,19.12
2022-09-30T05:41:58.525Z,19.14
2022-09-30T05:44:26.015Z,19.17
2022-09-30T05:46:53.623Z,19.19
2022-09-30T05:49:22.156Z,19.21
2022-09-30T05:51:49.805Z,19.25
2022-09-30T05:54:17.241Z,19.25
2022-09-30T05:56:45.004Z,19.27
2022-09-30T05:59:12.486Z,19.28
2022-09-30T06:01:40.115Z,19.31
2022-09-30T06:04:07.928Z,19.33
2022-09-30T06:06:35.393Z,19.38
2022-09-30T06:09:03.037Z,19.41
2022-09-30T06:11:31.649Z,19.49
2022-09-30T06:13:59.187Z,19.54
2022-09-30T06:16:26.915Z,19.59
2022-09-30T06:18:55.401Z,19.63
2022-09-30T06:21:23.522Z,19.65
2022-09-30T06:23:51.126Z,19.66
2022-09-30T06:26:18.878Z,19.67
2022-09-30T06:28:46.403Z,19.67
2022-09-30T06:31:14.753Z,19.67
2022-09-30T06:33:43.192Z,19.68
2022-09-30T06:36:10.802Z,19.71
2022-09-30T06:38:40.204Z,19.75
2022-09-30T06:41:08.635Z,19.78
2022-09-30T06:43:46.060Z,19.85
2022-09-30T06:46:30.587Z,19.90
2022-09-30T06:49:13.428Z,19.95
2022-09-30T06:51:42.217Z,20.01
2022-09-30T06:54:10.550Z,20.08
2022-09-30T06:56:38.264Z,20.11
2022-09-30T06:59:06.112Z,20.17
2022-09-30T07:01:33.804Z,20.20
2022-09-30T07:04:08.029Z,20.28
2022-09-30T07:06:35.920Z,20.33
2022-09-30T07:09:03.847Z,20.41
2022-09-30T07:11:31.575Z,20.48
2022-09-30T07:13:59.370Z,20.55
2022-09-30T07:16:27.104Z,20.62
2022-09-30T07:18:55.020Z,20.68
2022-09-30T07:21:22.850Z,20.74
2022-09-30T07:23:52.830Z,20.81
2022-09-30T07:26:23.559Z,20.86
2022-09-30T07:28:52.796Z,20.88
2022-09-30T07:31:33.752Z,20.86
2022-09-30T07:34:09.422Z,20.82
2022-09-30T07:36:40.498Z,20.79
2022-09-30T07:39:11.047Z,20.78
2022-09-30T07:41:40.175Z,20.81
2022-09-30T07:44:14.304Z,20.82
2022-09-30T07:46:44.467Z,20.83
2022-09-30T07:49:24.779Z,20.86
2022-09-30T07:52:03.182Z,20.87
2022-09-30T07:54:38.737Z,20.91
2022-09-30T07:57:11.160Z,20.95
2022-09-30T07:59:41.702Z,20.99
2022-09-30T08:02:18.120Z,21.02
2022-09-30T08:04:46.629Z,21.05
2022-09-30T08:07:16.415Z,21.06
2022-09-30T08:09:44.361Z,21.10
2022-09-30T08:12:11.988Z,21.14
2022-09-30T08:14:39.781Z,21.18
2022-09-30T08:17:07.279Z,21.19
2022-09-30T08:19:35.802Z,21.22
2022-09-30T08:22:04.196Z,21.26
2022-09-30T08:24:32.124Z,21.32
2022-09-30T08:26:59.701Z,21.36
2022-09-30T08:29:54.320Z,21.46
2022-09-30T08:32:15.628Z,21.57
2022-09-30T08:34:43.525Z,21.70
2022-09-30T08:37:10.972Z,21.81
2022-09-30T08:39:39.085Z,21.90
2022-09-30T08:42:39.537Z,21.96
2022-09-30T08:45:19.553Z,22.02
2022-09-30T08:48:05.608Z,22.12
2022-09-30T08:50:50.074Z,22.10
2022-09-30T08:53:31.502Z,22.12
2022-09-30T08:56:02.763Z,22.15
2022-09-30T08:58:39.251Z,22.26
2022-09-30T09:01:48.493Z,22.38
2022-09-30T09:04:18.482Z,22.41
2022-09-30T09:07:19.608Z,22.40
2022-09-30T09:10:32.914Z,22.39
2022-09-30T09:13:37.260Z,22.37
2022-09-30T09:16:28.817Z,22.32
2022-09-30T09:19:11.807Z,22.30
2022-09-30T09:22:02.003Z,22.36
2022-09-30T09:24:46.238Z,22.46
2022-09-30T09:28:00.191Z,22.63
2022-09-30T09:30:43.592Z,22.78
2022-09-30T09:33:22.988Z,22.95
2022-09-30T09:36:13.029Z,23.05
2022-09-30T09:39:06.126Z,23.15
2022-09-30T09:41:56.219Z,23.27
2022-09-30T09:45:12.999Z,23.37
2022-09-30T09:47:45.708Z,23.45
2022-09-30T09:51:05.384Z,23.55
2022-09-30T09:53:53.637Z,23.49
2022-09-30T09:56:31.848Z,23.53
2022-09-30T09:59:20.072Z,23.57
2022-09-30T10:01:54.154Z,23.66
2022-09-30T10:04:33.309Z,23.76
2022-09-30T10:07:13.590Z,23.82
2022-09-30T10:09:43.192Z,23.93
2022-09-30T10:12:13.626Z,24.02
2022-09-30T10:15:12.296Z,24.13
2022-09-30T10:17:40.857Z,24.20
2022-09-30T10:20:31.728Z,24.26
2022-09-30T10:23:23.504Z,24.34
2022-09-30T10:26:14.665Z,24.39
2022-09-30T10:29:06.414Z,24.48
2022-09-30T10:31:40.889Z,24.56
2022-09-30T10:34:35.436Z,24.66
2022-09-30T10:37:23.801Z,24.74
2022-09-30T10:40:01.410Z,24.83
2022-09-30T10:42:40.750Z,24.88
2022-09-30T10:45:37.280Z,24.96
2022-09-30T10:48:16.580Z,25.05
2022-09-30T10:50:53.139Z,25.14
2022-09-30T10:53:30.899Z,25.26
2022-09-30T10:55:59.527Z,25.36
2022-09-30T10:58:48.607Z,25.50
2022-09-30T11:01:48.368Z,25.67
2022-09-30T11:04:24.477Z,25.79
2022-09-30T11:07:19.208Z,25.92
2022-09-30T11:10:08.907Z,26.09
2022-09-30T11:12:48.928Z,26.24
2022-09-30T11:15:45.854Z,26.44
2022-09-30T11:18:34.920Z,26.44
2022-09-30T11:21:23.598Z,26.49
2022-09-30T11:24:14.092Z,26.53
2022-09-30T11:27:06.952Z,26.64
2022-09-30T11:29:40.678Z,26.76
2022-09-30T11:32:55.105Z,26.94
2022-09-30T11:35:42.129Z,27.05
2022-09-30T11:38:46.246Z,27.23
2022-09-30T11:41:13.920Z,27.36
2022-09-30T11:44:21.951Z,27.43
2022-09-30T11:46:52.468Z,27.43
2022-09-30T11:49:25.976Z,27.41
2022-09-30T11:52:18.858Z,27.32
2022-09-30T11:55:23.673Z,27.29
2022-09-30T11:58:22.400Z,27.25
2022-09-30T12:00:59.262Z,27.23
2022-09-30T12:03:40.032Z,27.29
2022-09-30T12:06:22.921Z,27.23
2022-09-30T12:09:01.363Z,27.22
2022-09-30T12:12:08.567Z,27.16
2022-09-30T12:14:53.694Z,27.15
2022-09-30T12:18:10.975Z,27.16
2022-09-30T12:20:54.192Z,27.17
2022-09-30T12:23:39.624Z,27.14
2022-09-30T12:26:07.514Z,27.07
2022-09-30T12:29:04.706Z,27.03
2022-09-30T12:31:41.221Z,26.94
2022-09-30T12:34:48.360Z,26.87
2022-09-30T12:38:03.408Z,26.81
2022-09-30T12:41:35.919Z,26.84
2022-09-30T12:44:52.760Z,26.97
2022-09-30T12:47:38.587Z,27.09
2022-09-30T12:50:09.168Z,27.23
2022-09-30T12:52:38.376Z,27.31
2022-09-30T12:55:31.234Z,27.32
2022-09-30T12:58:01.452Z,27.33
2022-09-30T13:00:36.145Z,27.31
2022-09-30T13:03:15.903Z,27.31
2022-09-30T13:05:47.373Z,27.28
2022-09-30T13:08:36.625Z,27.24
2022-09-30T13:11:08.129Z,27.21
2022-09-30T13:14:43.655Z,27.16
2022-09-30T13:17:11.499Z,27.13
2022-09-30T13:19:51.980Z,27.12
2022-09-30T13:22:39.773Z,27.13
2022-09-30T13:25:16.678Z,27.14
2022-09-30T13:27:55.506Z,27.09
2022-09-30T13:30:24.780Z,27.05
2022-09-30T13:32:59.488Z,27.06
2022-09-30T13:35:37.251Z,27.00
2022-09-30T13:38:21.814Z,26.97
2022-09-30T13:41:22.785Z,26.93
2022-09-30T13:43:53.075Z,26.91
2022-09-30T13:46:43.191Z,26.92
2022-09-30T13:49:35.965Z,26.94
2022-09-30T13:52:16.575Z,26.92
2022-09-30T13:54:47.788Z,26.88
2022-09-30T13:57:23.538Z,26.85
2022-09-30T14:00:18.049Z,26.82
2022-09-30T14:03:32.687Z,26.76
2022-09-30T14:06:16.593Z,26.72
2022-09-30T14:09:13.980Z,26.73
2022-09-30T14:12:17.635Z,26.74
2022-09-30T14:15:37.939Z,26.75
2022-09-30T14:18:33.330Z,26.72
2022-09-30T14:21:34.109Z,26.68
2022-09-30T14:24:17.468Z,26.60
2022-09-30T14:27:28.079Z,26.56
2022-09-30T14:30:26.811Z,26.47
2022-09-30T14:33:09.335Z,26.37
2022-09-30T14:35:41.606Z,26.25
2022-09-30T14:38:18.193Z,26.10
2022-09-30T14:40:55.289Z,25.98
2022-09-30T14:43:40.349Z,25.88
2022-09-30T14:46:40.966Z,25.74
2022-09-30T14:49:16.566Z,25.61
2022-09-30T14:51:49.244Z,25.48
2022-09-30T14:54:26.677Z,25.39
2022-09-30T14:56:55.883Z,25.30
2022-09-30T14:59:27.671Z,25.22
2022-09-30T15:02:03.944Z,25.12
2022-09-30T15:04:38.961Z,25.05
2022-09-30T15:07:11.984Z,24.99
2022-09-30T15:09:46.556Z,24.95
2022-09-30T15:12:19.336Z,24.90
2022-09-30T15:14:54.829Z,24.85
2022-09-30T15:17:36.283Z,24.80
2022-09-30T15:20:32.670Z,24.75
2022-09-30T15:23:09.489Z,24.69
2022-09-30T15:25:37.569Z,24.66
2022-09-30T15:28:09.039Z,24.61
2022-09-30T15:30:36.672Z,24.58
2022-09-30T15:33:06.350Z,24.53
2022-09-30T15:35:34.059Z,24.48
2022-09-30T15:38:16.324Z,24.44
2022-09-30T15:41:09.700Z,24.37
2022-09-30T15:43:52.919Z,24.32
2022-09-30T15:46:26.018Z,24.27
2022-09-30T15:48:59.507Z,24.22
2022-09-30T15:51:33.627Z,24.15
2022-09-30T15:54:33.263Z,24.06
2022-09-30T15:57:04.531Z,23.98
2022-09-30T16:00:06.331Z,23.90
2022-09-30T16:02:35.490Z,23.82
2022-09-30T16:05:05.453Z,23.77
2022-09-30T16:07:33.320Z,23.72
2022-09-30T16:10:01.187Z,23.63
2022-09-30T16:12:36.217Z,23.56
2022-09-30T16:15:15.576Z,23.47
2022-09-30T16:17:50.166Z,23.42
2022-09-30T16:20:17.941Z,23.36
2022-09-30T16:22:45.382Z,23.29
2022-09-30T16:25:34.413Z,23.27
2022-09-30T16:28:14.310Z,23.21
2022-09-30T16:30:46.024Z,23.17
2022-09-30T16:33:15.596Z,23.15
2022-09-30T16:35:44.337Z,23.11
2022-09-30T16:38:18.291Z,23.09
2022-09-30T16:40:46.444Z,23.05
2022-09-30T16:43:14.370Z,23.05
2022-09-30T16:45:42.577Z,23.03
2022-09-30T16:48:19.265Z,23.02
2022-09-30T16:51:04.804Z,22.99
2022-09-30T16:53:32.727Z,22.98
2022-09-30T16:56:00.911Z,23.01
2022-09-30T16:58:28.762Z,23.02
2022-09-30T17:01:00.229Z,23.01
2022-09-30T17:03:28.792Z,22.98
2022-09-30T17:05:57.120Z,22.96
2022-09-30T17:08:24.908Z,22.96
2022-09-30T17:10:52.668Z,22.95
2022-09-30T17:13:20.358Z,22.97
2022-09-30T17:15:52.115Z,23.00
2022-09-30T17:18:20.302Z,23.02
2022-09-30T17:20:52.935Z,23.05
2022-09-30T17:23:25.412Z,23.07
2022-09-30T17:25:54.856Z,23.10
2022-09-30T17:28:23.018Z,23.09
2022-09-30T17:30:50.703Z,23.11
2022-09-30T17:33:21.218Z,23.13
2022-09-30T17:36:00.681Z,23.12
2022-09-30T17:38:29.445Z,23.12
2022-09-30T17:41:16.005Z,23.15
2022-09-30T17:43:45.757Z,23.16
2022-09-30T17:46:18.986Z,23.16
2022-09-30T17:48:47.065Z,23.17
2022-09-30T17:51:18.646Z,23.19
2022-09-30T17:53:47.053Z,23.17
2022-09-30T17:56:22.641Z,23.15
2022-09-30T17:58:51.174Z,23.15
2022-09-30T18:01:21.471Z,23.13
2022-09-30T18:03:53.131Z,23.13
2022-09-30T18:06:39.592Z,23.12
2022-09-30T18:09:07.310Z,23.11
2022-09-30T18:11:54.538Z,23.09
2022-09-30T18:14:22.217Z,23.07
2022-09-30T18:16:49.867Z,23.05
2022-09-30T18:19:17.841Z,23.05
2022-09-30T18:21:46.074Z,23.03
2022-09-30T18:24:13.790Z,23.01
2022-09-30T18:26:41.660Z,22.98
2022-09-30T18:29:09.507Z,22.96
2022-09-30T18:31:38.875Z,22.94
2022-09-30T18:34:25.652Z,22.90
2022-09-30T18:36:53.360Z,22.88
2022-09-30T18:39:21.578Z,22.85
2022-09-30T18:41:49.624Z,22.83
2022-09-30T18:44:17.202Z,22.79
2022-09-30T18:47:05.509Z,22.75
2022-09-30T18:49:33.109Z,22.71
2022-09-30T18:52:01.867Z,22.64
2022-09-30T18:54:30.057Z,22.55
2022-09-30T18:56:57.620Z,22.45
2022-09-30T18:59:26.235Z,22.39
2022-09-30T19:01:55.765Z,22.32
2022-09-30T19:04:23.390Z,22.27
2022-09-30T19:06:51.030Z,22.20
2022-09-30T19:09:20.442Z,22.15
2022-09-30T19:11:49.419Z,22.09
2022-09-30T19:14:17.457Z,22.07
2022-09-30T19:16:47.395Z,22.05
2022-09-30T19:19:16.205Z,22.03
2022-09-30T19:21:44.824Z,22.04
2022-09-30T19:24:12.878Z,22.03
2022-09-30T19:26:41.114Z,22.02
2022-09-30T19:29:11.124Z,22.01
2022-09-30T19:31:39.908Z,22.01
2022-09-30T19:34:11.456Z,21.98
2022-09-30T19:36:49.873Z,21.94
2022-09-30T19:39:19.283Z,21.91
2022-09-30T19:41:47.381Z,21.88
2022-09-30T19:44:19.034Z,21.88
2022-09-30T19:46:54.985Z,21.91
2022-09-30T19:49:23.747Z,21.87
2022-09-30T19:51:52.864Z,21.89
2022-09-30T19:54:37.355Z,21.89
2022-09-30T19:57:08.163Z,21.94
2022-09-30T19:59:36.059Z,21.96
2022-09-30T20:02:04.380Z,22.01
2022-09-30T20:04:34.402Z,22.10
2022-09-30T20:07:02.467Z,22.16
2022-09-30T20:09:30.292Z,22.23
2022-09-30T20:11:58.161Z,22.23
2022-09-30T20:14:44.938Z,22.24
2022-09-30T20:17:12.919Z,22.28
2022-09-30T20:19:40.562Z,22.29
2022-09-30T20:22:08.175Z,22.38
2022-09-30T20:24:37.989Z,22.34
2022-09-30T20:27:06.107Z,22.34
2022-09-30T20:29:34.154Z,22.42
2022-09-30T20:32:03.970Z,22.43
2022-09-30T20:34:34.487Z,22.42
2022-09-30T20:37:06.361Z,22.42
2022-09-30T20:39:34.698Z,22.45
2022-09-30T20:42:02.268Z,22.42
2022-09-30T20:44:30.812Z,22.45
2022-09-30T20:47:00.006Z,22.45
2022-09-30T20:49:28.744Z,22.45
2022-09-30T20:51:56.585Z,22.40
2022-09-30T20:54:24.895Z,22.39
2022-09-30T20:57:06.644Z,22.40
2022-09-30T20:59:35.396Z,22.36
2022-09-30T21:02:02.987Z,22.34
2022-09-30T21:04:31.515Z,22.33
2022-09-30T21:07:00.532Z,22.37
2022-09-30T21:09:37.217Z,22.33
2022-09-30T21:12:13.621Z,22.32
2022-09-30T21:14:43.668Z,22.33
2022-09-30T21:17:11.818Z,22.36
2022-09-30T21:19:40.009Z,22.40
2022-09-30T21:22:08.128Z,22.45
2022-09-30T21:24:40.680Z,22.47
2022-09-30T21:27:12.411Z,22.53
2022-09-30T21:29:43.892Z,22.57
2022-09-30T21:32:11.680Z,22.60
2022-09-30T21:34:40.094Z,22.67
2022-09-30T21:37:09.036Z,22.72
2022-09-30T21:39:38.555Z,22.73
2022-09-30T21:42:07.589Z,22.71
2022-09-30T21:44:35.532Z,22.70
2022-09-30T21:47:03.314Z,22.66
2022-09-30T21:49:30.946Z,22.61
2022-09-30T21:51:58.850Z,22.58
2022-09-30T21:54:27.746Z,22.54
2022-09-30T21:56:55.289Z,22.49
2022-09-30T21:59:25.637Z,22.44
2022-09-30T22:01:53.383Z,22.38
2022-09-30T22:04:21.049Z,22.32
2022-09-30T22:06:49.262Z,22.25
2022-09-30T22:09:16.810Z,22.19
2022-09-30T22:11:44.883Z,22.13
2022-09-30T22:14:12.804Z,22.08
2022-09-30T22:16:40.775Z,22.06
2022-09-30T22:19:09.291Z,22.02
2022-09-30T22:21:38.585Z,21.99
2022-09-30T22:24:09.106Z,21.96
2022-09-30T22:26:37.260Z,21.93
2022-09-30T22:29:13.019Z,21.94
2022-09-30T22:31:41.169Z,21.94
2022-09-30T22:34:32.432Z,21.93
2022-09-30T22:37:18.623Z,21.92
2022-09-30T22:39:46.479Z,21.92
2022-09-30T22:42:14.114Z,21.93
2022-09-30T22:44:41.751Z,21.94
2022-09-30T22:47:11.176Z,21.96
2022-09-30T22:49:38.841Z,22.00
2022-09-30T22:52:06.865Z,22.02
2022-09-30T22:54:36.667Z,22.03
2022-09-30T22:57:05.638Z,22.05
2022-09-30T22:59:33.505Z,22.06
2022-09-30T23:02:01.344Z,22.06
2022-09-30T23:04:29.102Z,22.04
2022-09-30T23:06:56.811Z,22.03
2022-09-30T23:09:25.247Z,22.03
2022-09-30T23:11:56.981Z,22.08
2022-09-30T23:14:25.126Z,22.13
2022-09-30T23:16:52.953Z,22.17
2022-09-30T23:19:21.072Z,22.16
2022-09-30T23:21:48.656Z,22.22
2022-09-30T23:24:16.562Z,22.22
2022-09-30T23:26:44.112Z,22.21
2022-09-30T23:29:14.015Z,22.22
2022-09-30T23:31:42.415Z,22.25
2022-09-30T23:34:10.314Z,22.26
2022-09-30T23:36:38.342Z,22.29
2022-09-30T23:39:20.256Z,22.33
2022-09-30T23:41:49.919Z,22.34
2022-09-30T23:44:18.879Z,22.35
2022-09-30T23:47:08.341Z,22.32
2022-09-30T23:49:36.220Z,22.27
2022-09-30T23:52:12.594Z,22.22
2022-09-30T23:54:44.605Z,22.16
2022-09-30T23:57:12.484Z,22.10
2022-09-30T23:59:40.089Z,22.00
